MMUN/CUN METAR and TAF weather

Enter ICAO airport designator
Station Type Date Time Source
MMUN METAR 2019/10/15 20:47 UTC NOAA

MMUN 152047Z 11016KT 7SM FEW015TCU SCT080 30/24 A2988 RMK SLP118 57014 960 8/270


Station Type Date Time Source
MMUN Decoded METAR 2019/10/15 20:47 UTC NOAA

Cancun International Airport, Mexico (MMUN) 21-02N 086-52W
Oct 15, 2019 - 04:47 PM EDT / 2019.10.15 2047 UTC
Wind: from the ESE (110 degrees) at 18 MPH (16 KT):0
Visibility: 7 mile(s):0
Sky conditions: partly cloudy
Weather: Towering cumulus clouds observed
Temperature: 86 F (30 C)
Heat index: 95.0 F (35.0 C):1
Dew Point: 75 F (24 C)
Relative Humidity: 70%
Pressure (altimeter): 29.88 in. Hg (1011 hPa)
Pressure tendency: 0.04 inches (1.4 hPa) lower than three hours ago
ob: MMUN 152047Z 11016KT 7SM FEW015TCU SCT080 30/24 A2988 RMK SLP118 57014 960 8/270
cycle: 21

Station Type Date Time Source
MMUN TAF 2019/10/15 18:28 UTC NOAA

TAF MMUN 151720Z 1518/1624 12015KT P6SM BKN015 TX32/1518Z TN27/1612Z
FM160100 09010KT P6SM SCT015
FM161500 12015KT P6SM SCT015

Example: see airport list